sensor_id;sensor_type;location;lat;lon;timestamp;P1;durP1;ratioP1;P2;durP2;ratioP2
14516;SDS011;7344;50.864;4.362;2023-02-28T00:01:18;13.33;;;8.07;;
14516;SDS011;7344;50.864;4.362;2023-02-28T00:03:44;9.43;;;7.60;;
14516;SDS011;7344;50.864;4.362;2023-02-28T00:06:10;9.37;;;7.57;;
14516;SDS011;7344;50.864;4.362;2023-02-28T00:08:36;13.47;;;7.90;;
14516;SDS011;7344;50.864;4.362;2023-02-28T00:11:03;12.33;;;7.77;;
14516;SDS011;7344;50.864;4.362;2023-02-28T00:13:29;8.67;;;6.90;;
14516;SDS011;7344;50.864;4.362;2023-02-28T00:15:59;12.83;;;8.00;;
14516;SDS011;7344;50.864;4.362;2023-02-28T00:18:29;9.37;;;7.33;;
14516;SDS011;7344;50.864;4.362;2023-02-28T00:20:54;10.07;;;7.93;;
14516;SDS011;7344;50.864;4.362;2023-02-28T00:23:20;11.97;;;7.43;;
14516;SDS011;7344;50.864;4.362;2023-02-28T00:25:46;9.73;;;7.43;;
14516;SDS011;7344;50.864;4.362;2023-02-28T00:28:11;8.93;;;7.53;;
14516;SDS011;7344;50.864;4.362;2023-02-28T00:30:37;10.13;;;7.50;;
14516;SDS011;7344;50.864;4.362;2023-02-28T00:33:02;9.17;;;8.10;;
14516;SDS011;7344;50.864;4.362;2023-02-28T00:35:28;12.20;;;7.70;;
14516;SDS011;7344;50.864;4.362;2023-02-28T00:37:53;13.97;;;8.53;;
14516;SDS011;7344;50.864;4.362;2023-02-28T00:40:19;12.13;;;7.80;;
14516;SDS011;7344;50.864;4.362;2023-02-28T00:42:45;10.97;;;7.90;;
14516;SDS011;7344;50.864;4.362;2023-02-28T00:45:10;8.63;;;7.17;;
14516;SDS011;7344;50.864;4.362;2023-02-28T00:47:36;8.97;;;7.43;;
14516;SDS011;7344;50.864;4.362;2023-02-28T00:50:02;10.60;;;8.27;;
14516;SDS011;7344;50.864;4.362;2023-02-28T00:52:28;12.37;;;8.10;;
14516;SDS011;7344;50.864;4.362;2023-02-28T00:54:54;8.23;;;7.53;;
14516;SDS011;7344;50.864;4.362;2023-02-28T00:57:19;10.13;;;7.77;;
14516;SDS011;7344;50.864;4.362;2023-02-28T00:59:45;10.07;;;7.93;;
14516;SDS011;7344;50.864;4.362;2023-02-28T01:02:10;8.73;;;7.30;;
14516;SDS011;7344;50.864;4.362;2023-02-28T01:04:36;12.03;;;8.17;;
14516;SDS011;7344;50.864;4.362;2023-02-28T01:07:02;12.77;;;8.20;;
14516;SDS011;7344;50.864;4.362;2023-02-28T01:09:27;12.60;;;8.27;;
14516;SDS011;7344;50.864;4.362;2023-02-28T01:11:53;10.40;;;7.87;;
14516;SDS011;7344;50.864;4.362;2023-02-28T01:14:19;9.23;;;7.70;;
14516;SDS011;7344;50.864;4.362;2023-02-28T01:16:44;12.53;;;8.47;;
14516;SDS011;7344;50.864;4.362;2023-02-28T01:19:10;11.43;;;8.47;;
14516;SDS011;7344;50.864;4.362;2023-02-28T01:21:36;8.93;;;7.97;;
14516;SDS011;7344;50.864;4.362;2023-02-28T01:24:03;11.30;;;8.40;;
14516;SDS011;7344;50.864;4.362;2023-02-28T01:26:29;12.47;;;8.60;;
14516;SDS011;7344;50.864;4.362;2023-02-28T01:28:55;10.70;;;8.97;;
14516;SDS011;7344;50.864;4.362;2023-02-28T01:31:21;11.33;;;8.13;;
14516;SDS011;7344;50.864;4.362;2023-02-28T01:33:48;12.67;;;8.40;;
14516;SDS011;7344;50.864;4.362;2023-02-28T01:36:15;12.70;;;8.87;;
14516;SDS011;7344;50.864;4.362;2023-02-28T01:38:43;10.60;;;8.63;;
14516;SDS011;7344;50.864;4.362;2023-02-28T01:41:12;12.77;;;9.03;;
14516;SDS011;7344;50.864;4.362;2023-02-28T01:46:10;11.53;;;8.93;;
14516;SDS011;7344;50.864;4.362;2023-02-28T01:48:38;12.80;;;9.17;;
14516;SDS011;7344;50.864;4.362;2023-02-28T01:51:11;12.83;;;9.40;;
14516;SDS011;7344;50.864;4.362;2023-02-28T01:53:51;13.40;;;9.17;;
14516;SDS011;7344;50.864;4.362;2023-02-28T01:56:23;14.70;;;9.60;;
14516;SDS011;7344;50.864;4.362;2023-02-28T01:58:53;10.17;;;8.90;;
14516;SDS011;7344;50.864;4.362;2023-02-28T02:01:20;11.23;;;9.23;;
14516;SDS011;7344;50.864;4.362;2023-02-28T02:03:54;11.53;;;9.47;;
14516;SDS011;7344;50.864;4.362;2023-02-28T02:06:23;14.00;;;10.03;;
14516;SDS011;7344;50.864;4.362;2023-02-28T02:08:52;11.23;;;9.83;;
14516;SDS011;7344;50.864;4.362;2023-02-28T02:11:19;13.70;;;9.53;;
14516;SDS011;7344;50.864;4.362;2023-02-28T02:13:51;13.70;;;9.97;;
14516;SDS011;7344;50.864;4.362;2023-02-28T02:25:24;14.80;;;9.60;;
14516;SDS011;7344;50.864;4.362;2023-02-28T02:31:10;17.27;;;9.93;;
14516;SDS011;7344;50.864;4.362;2023-02-28T02:36:48;11.40;;;9.47;;
14516;SDS011;7344;50.864;4.362;2023-02-28T02:42:23;15.87;;;10.17;;
14516;SDS011;7344;50.864;4.362;2023-02-28T02:44:59;11.30;;;10.03;;
14516;SDS011;7344;50.864;4.362;2023-02-28T02:47:32;13.40;;;10.63;;
14516;SDS011;7344;50.864;4.362;2023-02-28T02:50:01;18.20;;;11.13;;
14516;SDS011;7344;50.864;4.362;2023-02-28T02:52:33;19.43;;;11.50;;
14516;SDS011;7344;50.864;4.362;2023-02-28T02:55:03;15.33;;;11.10;;
14516;SDS011;7344;50.864;4.362;2023-02-28T02:57:36;16.23;;;11.23;;
14516;SDS011;7344;50.864;4.362;2023-02-28T03:00:25;13.67;;;9.90;;
14516;SDS011;7344;50.864;4.362;2023-02-28T03:02:56;15.87;;;11.03;;
14516;SDS011;7344;50.864;4.362;2023-02-28T03:05:26;14.87;;;11.43;;
14516;SDS011;7344;50.864;4.362;2023-02-28T03:07:55;17.50;;;11.57;;
14516;SDS011;7344;50.864;4.362;2023-02-28T03:12:56;15.60;;;11.07;;
14516;SDS011;7344;50.864;4.362;2023-02-28T03:15:37;16.57;;;11.60;;
14516;SDS011;7344;50.864;4.362;2023-02-28T03:18:21;16.80;;;10.80;;
14516;SDS011;7344;50.864;4.362;2023-02-28T03:21:20;19.93;;;11.50;;
14516;SDS011;7344;50.864;4.362;2023-02-28T03:26:43;16.33;;;12.70;;
14516;SDS011;7344;50.864;4.362;2023-02-28T03:30:19;16.50;;;11.87;;
14516;SDS011;7344;50.864;4.362;2023-02-28T03:35:08;21.60;;;12.80;;
14516;SDS011;7344;50.864;4.362;2023-02-28T03:37:45;16.20;;;11.50;;
14516;SDS011;7344;50.864;4.362;2023-02-28T03:40:22;17.07;;;11.83;;
14516;SDS011;7344;50.864;4.362;2023-02-28T03:42:52;18.13;;;11.97;;
14516;SDS011;7344;50.864;4.362;2023-02-28T03:45:25;19.10;;;12.60;;
14516;SDS011;7344;50.864;4.362;2023-02-28T03:47:54;14.67;;;12.30;;
14516;SDS011;7344;50.864;4.362;2023-02-28T03:50:33;16.40;;;12.27;;
14516;SDS011;7344;50.864;4.362;2023-02-28T03:53:06;16.13;;;12.57;;
14516;SDS011;7344;50.864;4.362;2023-02-28T03:55:48;19.70;;;12.43;;
14516;SDS011;7344;50.864;4.362;2023-02-28T03:58:26;15.23;;;11.87;;
14516;SDS011;7344;50.864;4.362;2023-02-28T04:01:11;18.70;;;12.53;;
14516;SDS011;7344;50.864;4.362;2023-02-28T04:03:41;13.87;;;11.70;;
14516;SDS011;7344;50.864;4.362;2023-02-28T04:06:08;18.40;;;12.23;;
14516;SDS011;7344;50.864;4.362;2023-02-28T04:08:41;16.00;;;12.13;;
14516;SDS011;7344;50.864;4.362;2023-02-28T04:11:08;15.67;;;11.30;;
14516;SDS011;7344;50.864;4.362;2023-02-28T04:13:55;21.77;;;14.00;;
14516;SDS011;7344;50.864;4.362;2023-02-28T04:16:20;18.40;;;13.00;;
14516;SDS011;7344;50.864;4.362;2023-02-28T04:18:46;19.87;;;12.73;;
14516;SDS011;7344;50.864;4.362;2023-02-28T04:21:12;18.23;;;12.93;;
14516;SDS011;7344;50.864;4.362;2023-02-28T04:23:37;22.27;;;13.30;;
14516;SDS011;7344;50.864;4.362;2023-02-28T04:26:03;18.07;;;14.00;;
14516;SDS011;7344;50.864;4.362;2023-02-28T04:28:30;19.23;;;12.93;;
14516;SDS011;7344;50.864;4.362;2023-02-28T04:30:56;22.13;;;13.47;;
14516;SDS011;7344;50.864;4.362;2023-02-28T04:33:23;18.53;;;12.90;;
14516;SDS011;7344;50.864;4.362;2023-02-28T04:35:57;22.07;;;12.77;;
14516;SDS011;7344;50.864;4.362;2023-02-28T04:38:27;17.23;;;12.40;;
14516;SDS011;7344;50.864;4.362;2023-02-28T04:41:03;19.90;;;13.47;;
14516;SDS011;7344;50.864;4.362;2023-02-28T04:43:30;18.87;;;12.90;;
14516;SDS011;7344;50.864;4.362;2023-02-28T04:45:56;21.60;;;13.17;;
14516;SDS011;7344;50.864;4.362;2023-02-28T04:48:27;19.33;;;12.73;;
14516;SDS011;7344;50.864;4.362;2023-02-28T04:50:54;18.47;;;13.10;;
14516;SDS011;7344;50.864;4.362;2023-02-28T04:53:20;18.03;;;13.13;;
14516;SDS011;7344;50.864;4.362;2023-02-28T04:55:46;16.53;;;13.27;;
14516;SDS011;7344;50.864;4.362;2023-02-28T04:58:12;22.73;;;13.70;;
14516;SDS011;7344;50.864;4.362;2023-02-28T05:00:39;21.70;;;13.57;;
14516;SDS011;7344;50.864;4.362;2023-02-28T05:03:04;18.93;;;13.33;;
14516;SDS011;7344;50.864;4.362;2023-02-28T05:05:30;18.23;;;12.80;;
14516;SDS011;7344;50.864;4.362;2023-02-28T05:07:56;21.17;;;13.40;;
14516;SDS011;7344;50.864;4.362;2023-02-28T05:10:22;20.07;;;13.43;;
14516;SDS011;7344;50.864;4.362;2023-02-28T05:12:47;20.13;;;13.47;;
14516;SDS011;7344;50.864;4.362;2023-02-28T05:15:14;20.00;;;13.20;;
14516;SDS011;7344;50.864;4.362;2023-02-28T05:17:41;22.77;;;13.73;;
14516;SDS011;7344;50.864;4.362;2023-02-28T05:20:07;17.97;;;12.67;;
14516;SDS011;7344;50.864;4.362;2023-02-28T05:22:36;19.23;;;13.27;;
14516;SDS011;7344;50.864;4.362;2023-02-28T05:25:03;19.03;;;12.87;;
14516;SDS011;7344;50.864;4.362;2023-02-28T05:27:30;21.53;;;12.93;;
14516;SDS011;7344;50.864;4.362;2023-02-28T05:29:56;20.20;;;12.53;;
14516;SDS011;7344;50.864;4.362;2023-02-28T05:32:22;16.63;;;12.90;;
14516;SDS011;7344;50.864;4.362;2023-02-28T05:34:47;18.57;;;12.87;;
14516;SDS011;7344;50.864;4.362;2023-02-28T05:37:13;17.27;;;12.57;;
14516;SDS011;7344;50.864;4.362;2023-02-28T05:39:40;23.83;;;12.03;;
14516;SDS011;7344;50.864;4.362;2023-02-28T05:42:06;16.40;;;11.97;;
14516;SDS011;7344;50.864;4.362;2023-02-28T05:44:32;16.73;;;12.10;;
14516;SDS011;7344;50.864;4.362;2023-02-28T05:46:58;18.67;;;12.80;;
14516;SDS011;7344;50.864;4.362;2023-02-28T05:49:24;20.03;;;12.20;;
14516;SDS011;7344;50.864;4.362;2023-02-28T05:51:49;19.80;;;12.33;;
14516;SDS011;7344;50.864;4.362;2023-02-28T05:54:15;15.33;;;11.60;;
14516;SDS011;7344;50.864;4.362;2023-02-28T05:56:40;15.60;;;12.00;;
14516;SDS011;7344;50.864;4.362;2023-02-28T05:59:09;16.87;;;10.83;;
14516;SDS011;7344;50.864;4.362;2023-02-28T06:01:39;15.80;;;11.67;;
14516;SDS011;7344;50.864;4.362;2023-02-28T06:04:07;19.87;;;12.10;;
14516;SDS011;7344;50.864;4.362;2023-02-28T06:06:34;17.97;;;12.13;;
14516;SDS011;7344;50.864;4.362;2023-02-28T06:09:01;16.30;;;11.90;;
14516;SDS011;7344;50.864;4.362;2023-02-28T06:11:27;18.13;;;11.80;;
14516;SDS011;7344;50.864;4.362;2023-02-28T06:13:56;14.37;;;10.83;;
14516;SDS011;7344;50.864;4.362;2023-02-28T06:16:25;23.43;;;11.97;;
14516;SDS011;7344;50.864;4.362;2023-02-28T06:18:51;16.30;;;12.80;;
14516;SDS011;7344;50.864;4.362;2023-02-28T06:21:21;18.13;;;12.23;;
14516;SDS011;7344;50.864;4.362;2023-02-28T06:23:47;15.00;;;11.57;;
14516;SDS011;7344;50.864;4.362;2023-02-28T06:26:12;20.17;;;12.47;;
14516;SDS011;7344;50.864;4.362;2023-02-28T06:28:38;17.07;;;11.90;;
14516;SDS011;7344;50.864;4.362;2023-02-28T06:31:08;14.53;;;10.20;;
14516;SDS011;7344;50.864;4.362;2023-02-28T06:33:35;16.33;;;11.87;;
14516;SDS011;7344;50.864;4.362;2023-02-28T06:36:02;16.10;;;11.40;;
14516;SDS011;7344;50.864;4.362;2023-02-28T06:38:28;12.00;;;9.90;;
14516;SDS011;7344;50.864;4.362;2023-02-28T06:40:54;15.07;;;11.50;;
14516;SDS011;7344;50.864;4.362;2023-02-28T06:43:20;16.47;;;10.77;;
14516;SDS011;7344;50.864;4.362;2023-02-28T06:45:46;26.30;;;11.53;;
14516;SDS011;7344;50.864;4.362;2023-02-28T06:48:12;19.37;;;10.97;;
14516;SDS011;7344;50.864;4.362;2023-02-28T06:50:38;16.60;;;9.53;;
14516;SDS011;7344;50.864;4.362;2023-02-28T06:53:03;20.13;;;11.53;;
14516;SDS011;7344;50.864;4.362;2023-02-28T06:55:29;22.70;;;11.93;;
14516;SDS011;7344;50.864;4.362;2023-02-28T06:57:55;15.83;;;10.40;;
14516;SDS011;7344;50.864;4.362;2023-02-28T07:00:20;15.30;;;11.00;;
14516;SDS011;7344;50.864;4.362;2023-02-28T07:02:46;18.10;;;10.67;;
14516;SDS011;7344;50.864;4.362;2023-02-28T07:05:12;14.40;;;10.60;;
14516;SDS011;7344;50.864;4.362;2023-02-28T07:07:38;13.93;;;10.60;;
14516;SDS011;7344;50.864;4.362;2023-02-28T07:10:08;13.73;;;10.53;;
14516;SDS011;7344;50.864;4.362;2023-02-28T07:12:39;15.90;;;10.47;;
14516;SDS011;7344;50.864;4.362;2023-02-28T07:15:05;23.73;;;10.97;;
14516;SDS011;7344;50.864;4.362;2023-02-28T07:17:31;17.03;;;11.07;;
14516;SDS011;7344;50.864;4.362;2023-02-28T07:19:57;17.47;;;10.50;;
14516;SDS011;7344;50.864;4.362;2023-02-28T07:22:23;21.10;;;10.63;;
14516;SDS011;7344;50.864;4.362;2023-02-28T07:24:49;25.60;;;11.83;;
14516;SDS011;7344;50.864;4.362;2023-02-28T07:27:15;26.10;;;12.53;;
14516;SDS011;7344;50.864;4.362;2023-02-28T07:29:48;24.70;;;15.07;;
14516;SDS011;7344;50.864;4.362;2023-02-28T07:32:17;26.27;;;15.23;;
14516;SDS011;7344;50.864;4.362;2023-02-28T07:34:43;19.27;;;10.27;;
14516;SDS011;7344;50.864;4.362;2023-02-28T07:37:09;15.43;;;11.23;;
14516;SDS011;7344;50.864;4.362;2023-02-28T07:39:35;20.70;;;10.23;;
14516;SDS011;7344;50.864;4.362;2023-02-28T07:42:03;13.90;;;10.33;;
14516;SDS011;7344;50.864;4.362;2023-02-28T07:44:29;10.63;;;9.10;;
14516;SDS011;7344;50.864;4.362;2023-02-28T07:46:55;14.00;;;8.70;;
14516;SDS011;7344;50.864;4.362;2023-02-28T07:49:20;11.73;;;8.10;;
14516;SDS011;7344;50.864;4.362;2023-02-28T07:51:46;12.50;;;8.07;;
14516;SDS011;7344;50.864;4.362;2023-02-28T07:54:12;9.97;;;8.00;;
14516;SDS011;7344;50.864;4.362;2023-02-28T07:56:37;13.17;;;7.73;;
14516;SDS011;7344;50.864;4.362;2023-02-28T07:59:03;11.17;;;8.00;;
14516;SDS011;7344;50.864;4.362;2023-02-28T08:01:28;9.03;;;7.90;;
14516;SDS011;7344;50.864;4.362;2023-02-28T08:03:54;10.77;;;7.37;;
14516;SDS011;7344;50.864;4.362;2023-02-28T08:06:22;8.93;;;6.90;;
14516;SDS011;7344;50.864;4.362;2023-02-28T08:08:49;7.50;;;6.70;;
14516;SDS011;7344;50.864;4.362;2023-02-28T08:11:15;8.00;;;6.77;;
14516;SDS011;7344;50.864;4.362;2023-02-28T08:13:41;9.30;;;7.30;;
14516;SDS011;7344;50.864;4.362;2023-02-28T08:16:08;7.67;;;6.17;;
14516;SDS011;7344;50.864;4.362;2023-02-28T08:18:35;6.10;;;5.60;;
14516;SDS011;7344;50.864;4.362;2023-02-28T08:21:08;6.53;;;5.57;;
14516;SDS011;7344;50.864;4.362;2023-02-28T08:23:35;6.27;;;5.67;;
14516;SDS011;7344;50.864;4.362;2023-02-28T08:26:01;7.17;;;5.70;;
14516;SDS011;7344;50.864;4.362;2023-02-28T08:28:27;5.90;;;5.40;;
14516;SDS011;7344;50.864;4.362;2023-02-28T08:30:52;5.13;;;4.70;;
14516;SDS011;7344;50.864;4.362;2023-02-28T08:33:19;7.80;;;5.23;;
14516;SDS011;7344;50.864;4.362;2023-02-28T08:35:44;6.57;;;4.87;;
14516;SDS011;7344;50.864;4.362;2023-02-28T08:38:10;4.43;;;4.10;;
14516;SDS011;7344;50.864;4.362;2023-02-28T08:40:36;5.93;;;3.90;;
14516;SDS011;7344;50.864;4.362;2023-02-28T08:43:01;3.67;;;3.40;;
14516;SDS011;7344;50.864;4.362;2023-02-28T08:45:27;4.90;;;4.40;;
14516;SDS011;7344;50.864;4.362;2023-02-28T08:47:53;6.93;;;3.97;;
14516;SDS011;7344;50.864;4.362;2023-02-28T08:50:20;5.73;;;4.77;;
14516;SDS011;7344;50.864;4.362;2023-02-28T08:52:46;5.50;;;3.93;;
14516;SDS011;7344;50.864;4.362;2023-02-28T08:55:12;4.63;;;3.70;;
14516;SDS011;7344;50.864;4.362;2023-02-28T08:57:37;5.70;;;4.37;;
14516;SDS011;7344;50.864;4.362;2023-02-28T09:00:03;7.03;;;4.47;;
14516;SDS011;7344;50.864;4.362;2023-02-28T09:02:30;4.50;;;4.10;;
14516;SDS011;7344;50.864;4.362;2023-02-28T09:04:56;5.63;;;3.97;;
14516;SDS011;7344;50.864;4.362;2023-02-28T09:07:23;7.00;;;3.73;;
14516;SDS011;7344;50.864;4.362;2023-02-28T09:09:49;6.57;;;4.57;;
14516;SDS011;7344;50.864;4.362;2023-02-28T09:12:21;6.07;;;4.30;;
14516;SDS011;7344;50.864;4.362;2023-02-28T09:14:48;4.43;;;4.03;;
14516;SDS011;7344;50.864;4.362;2023-02-28T09:17:13;5.83;;;4.20;;
14516;SDS011;7344;50.864;4.362;2023-02-28T09:19:40;4.77;;;4.40;;
14516;SDS011;7344;50.864;4.362;2023-02-28T09:22:05;6.10;;;4.63;;
14516;SDS011;7344;50.864;4.362;2023-02-28T09:24:31;4.90;;;4.40;;
14516;SDS011;7344;50.864;4.362;2023-02-28T09:26:56;4.57;;;4.00;;
14516;SDS011;7344;50.864;4.362;2023-02-28T09:29:22;6.60;;;4.10;;
14516;SDS011;7344;50.864;4.362;2023-02-28T09:31:48;3.00;;;2.80;;
14516;SDS011;7344;50.864;4.362;2023-02-28T09:34:13;6.30;;;4.23;;
14516;SDS011;7344;50.864;4.362;2023-02-28T09:36:39;4.33;;;3.90;;
14516;SDS011;7344;50.864;4.362;2023-02-28T09:39:04;3.90;;;3.60;;
14516;SDS011;7344;50.864;4.362;2023-02-28T09:41:41;3.67;;;3.23;;
14516;SDS011;7344;50.864;4.362;2023-02-28T09:44:36;5.93;;;3.80;;
14516;SDS011;7344;50.864;4.362;2023-02-28T09:47:25;4.67;;;4.10;;
14516;SDS011;7344;50.864;4.362;2023-02-28T09:49:56;3.53;;;3.23;;
14516;SDS011;7344;50.864;4.362;2023-02-28T09:52:28;4.03;;;3.73;;
14516;SDS011;7344;50.864;4.362;2023-02-28T09:54:58;3.60;;;3.30;;
14516;SDS011;7344;50.864;4.362;2023-02-28T09:57:44;3.90;;;3.60;;
14516;SDS011;7344;50.864;4.362;2023-02-28T10:03:04;4.30;;;3.90;;
14516;SDS011;7344;50.864;4.362;2023-02-28T10:08:25;4.17;;;3.60;;
14516;SDS011;7344;50.864;4.362;2023-02-28T10:10:58;4.37;;;3.37;;
14516;SDS011;7344;50.864;4.362;2023-02-28T10:16:25;5.27;;;3.57;;
14516;SDS011;7344;50.864;4.362;2023-02-28T10:19:10;2.93;;;2.73;;
14516;SDS011;7344;50.864;4.362;2023-02-28T10:21:46;3.30;;;3.00;;
14516;SDS011;7344;50.864;4.362;2023-02-28T10:24:20;7.60;;;5.17;;
14516;SDS011;7344;50.864;4.362;2023-02-28T10:26:46;4.53;;;4.13;;
14516;SDS011;7344;50.864;4.362;2023-02-28T10:29:13;5.37;;;3.47;;
14516;SDS011;7344;50.864;4.362;2023-02-28T10:31:39;2.60;;;2.40;;
14516;SDS011;7344;50.864;4.362;2023-02-28T10:34:05;2.10;;;2.00;;
14516;SDS011;7344;50.864;4.362;2023-02-28T10:36:32;2.53;;;2.33;;
14516;SDS011;7344;50.864;4.362;2023-02-28T10:38:58;6.00;;;2.40;;
14516;SDS011;7344;50.864;4.362;2023-02-28T10:41:31;4.03;;;2.53;;
14516;SDS011;7344;50.864;4.362;2023-02-28T10:46:46;2.60;;;2.40;;
14516;SDS011;7344;50.864;4.362;2023-02-28T10:49:14;2.93;;;2.60;;
14516;SDS011;7344;50.864;4.362;2023-02-28T10:51:44;2.63;;;2.43;;
14516;SDS011;7344;50.864;4.362;2023-02-28T10:54:19;2.33;;;2.13;;
14516;SDS011;7344;50.864;4.362;2023-02-28T10:57:07;2.87;;;2.47;;
14516;SDS011;7344;50.864;4.362;2023-02-28T10:59:33;2.73;;;2.50;;
14516;SDS011;7344;50.864;4.362;2023-02-28T11:01:59;2.57;;;2.37;;
14516;SDS011;7344;50.864;4.362;2023-02-28T11:09:41;7.00;;;2.57;;
14516;SDS011;7344;50.864;4.362;2023-02-28T11:12:55;3.00;;;2.80;;
14516;SDS011;7344;50.864;4.362;2023-02-28T11:15:02;6.10;;;2.90;;
14516;SDS011;7344;50.864;4.362;2023-02-28T11:17:31;3.37;;;2.80;;
14516;SDS011;7344;50.864;4.362;2023-02-28T11:19:59;3.57;;;3.27;;
14516;SDS011;7344;50.864;4.362;2023-02-28T11:22:33;3.33;;;3.00;;
14516;SDS011;7344;50.864;4.362;2023-02-28T11:25:06;5.13;;;3.40;;
14516;SDS011;7344;50.864;4.362;2023-02-28T11:27:43;3.43;;;2.80;;
14516;SDS011;7344;50.864;4.362;2023-02-28T11:36:26;3.67;;;2.67;;
14516;SDS011;7344;50.864;4.362;2023-02-28T11:38:55;3.30;;;2.90;;
14516;SDS011;7344;50.864;4.362;2023-02-28T11:41:31;2.97;;;2.70;;
14516;SDS011;7344;50.864;4.362;2023-02-28T12:00:00;2.93;;;2.73;;
14516;SDS011;7344;50.864;4.362;2023-02-28T12:11:15;4.03;;;3.47;;
14516;SDS011;7344;50.864;4.362;2023-02-28T12:28:01;3.80;;;3.33;;
14516;SDS011;7344;50.864;4.362;2023-02-28T12:33:07;3.00;;;2.80;;
14516;SDS011;7344;50.864;4.362;2023-02-28T12:35:37;3.43;;;3.23;;
14516;SDS011;7344;50.864;4.362;2023-02-28T12:40:47;3.50;;;3.20;;
14516;SDS011;7344;50.864;4.362;2023-02-28T12:43:22;3.90;;;2.70;;
14516;SDS011;7344;50.864;4.362;2023-02-28T12:45:58;4.93;;;3.10;;
14516;SDS011;7344;50.864;4.362;2023-02-28T12:48:31;5.17;;;3.33;;
14516;SDS011;7344;50.864;4.362;2023-02-28T12:50:59;5.30;;;2.73;;
14516;SDS011;7344;50.864;4.362;2023-02-28T12:53:27;4.17;;;3.87;;
14516;SDS011;7344;50.864;4.362;2023-02-28T12:58:43;5.63;;;3.77;;
14516;SDS011;7344;50.864;4.362;2023-02-28T13:01:26;4.10;;;3.40;;
14516;SDS011;7344;50.864;4.362;2023-02-28T13:10:00;7.10;;;3.50;;
14516;SDS011;7344;50.864;4.362;2023-02-28T13:12:28;3.17;;;2.97;;
14516;SDS011;7344;50.864;4.362;2023-02-28T13:15:27;3.13;;;2.83;;
14516;SDS011;7344;50.864;4.362;2023-02-28T13:17:54;2.30;;;2.20;;
14516;SDS011;7344;50.864;4.362;2023-02-28T13:22:55;3.30;;;3.00;;
14516;SDS011;7344;50.864;4.362;2023-02-28T13:27:57;5.63;;;4.10;;
14516;SDS011;7344;50.864;4.362;2023-02-28T13:44:09;4.93;;;3.60;;
14516;SDS011;7344;50.864;4.362;2023-02-28T13:46:36;3.73;;;3.43;;
14516;SDS011;7344;50.864;4.362;2023-02-28T13:51:55;4.87;;;3.80;;
14516;SDS011;7344;50.864;4.362;2023-02-28T13:59:33;5.20;;;3.03;;
14516;SDS011;7344;50.864;4.362;2023-02-28T14:04:59;3.77;;;3.47;;
14516;SDS011;7344;50.864;4.362;2023-02-28T14:07:26;5.03;;;4.50;;
14516;SDS011;7344;50.864;4.362;2023-02-28T14:10:02;3.93;;;3.53;;
14516;SDS011;7344;50.864;4.362;2023-02-28T14:15:39;6.17;;;4.80;;
14516;SDS011;7344;50.864;4.362;2023-02-28T14:18:16;3.67;;;3.37;;
14516;SDS011;7344;50.864;4.362;2023-02-28T14:20:46;5.93;;;4.17;;
14516;SDS011;7344;50.864;4.362;2023-02-28T14:25:58;3.13;;;2.93;;
14516;SDS011;7344;50.864;4.362;2023-02-28T14:31:15;8.13;;;2.97;;
14516;SDS011;7344;50.864;4.362;2023-02-28T14:37:09;7.40;;;3.57;;
14516;SDS011;7344;50.864;4.362;2023-02-28T14:39:41;6.80;;;3.53;;
14516;SDS011;7344;50.864;4.362;2023-02-28T14:42:28;5.23;;;3.30;;
14516;SDS011;7344;50.864;4.362;2023-02-28T14:44:54;5.93;;;3.67;;
14516;SDS011;7344;50.864;4.362;2023-02-28T14:47:23;4.83;;;4.40;;
14516;SDS011;7344;50.864;4.362;2023-02-28T14:49:58;4.10;;;3.53;;
14516;SDS011;7344;50.864;4.362;2023-02-28T14:52:29;7.00;;;3.70;;
14516;SDS011;7344;50.864;4.362;2023-02-28T14:54:58;5.03;;;4.23;;
14516;SDS011;7344;50.864;4.362;2023-02-28T14:57:29;7.33;;;3.87;;
14516;SDS011;7344;50.864;4.362;2023-02-28T14:59:58;5.80;;;4.30;;
14516;SDS011;7344;50.864;4.362;2023-02-28T15:02:43;5.30;;;3.77;;
14516;SDS011;7344;50.864;4.362;2023-02-28T15:07:37;6.27;;;4.83;;
14516;SDS011;7344;50.864;4.362;2023-02-28T15:10:10;3.43;;;3.23;;
14516;SDS011;7344;50.864;4.362;2023-02-28T15:12:36;5.23;;;4.30;;
14516;SDS011;7344;50.864;4.362;2023-02-28T15:15:03;5.87;;;5.13;;
14516;SDS011;7344;50.864;4.362;2023-02-28T15:17:29;4.77;;;4.30;;
14516;SDS011;7344;50.864;4.362;2023-02-28T15:19:55;4.10;;;3.63;;
14516;SDS011;7344;50.864;4.362;2023-02-28T15:22:25;6.07;;;4.93;;
14516;SDS011;7344;50.864;4.362;2023-02-28T15:24:54;7.03;;;4.50;;
14516;SDS011;7344;50.864;4.362;2023-02-28T15:27:21;5.13;;;4.60;;
14516;SDS011;7344;50.864;4.362;2023-02-28T15:29:57;8.90;;;6.13;;
14516;SDS011;7344;50.864;4.362;2023-02-28T15:32:32;6.60;;;4.87;;
14516;SDS011;7344;50.864;4.362;2023-02-28T15:40:37;3.63;;;3.40;;
14516;SDS011;7344;50.864;4.362;2023-02-28T15:43:06;4.63;;;4.10;;
14516;SDS011;7344;50.864;4.362;2023-02-28T15:48:16;5.07;;;3.97;;
14516;SDS011;7344;50.864;4.362;2023-02-28T15:53:40;5.63;;;4.40;;
14516;SDS011;7344;50.864;4.362;2023-02-28T15:56:19;6.50;;;4.33;;
14516;SDS011;7344;50.864;4.362;2023-02-28T15:59:08;3.93;;;3.57;;
14516;SDS011;7344;50.864;4.362;2023-02-28T16:01:40;4.47;;;4.13;;
14516;SDS011;7344;50.864;4.362;2023-02-28T16:04:11;7.50;;;4.63;;
14516;SDS011;7344;50.864;4.362;2023-02-28T16:06:44;6.40;;;4.90;;
14516;SDS011;7344;50.864;4.362;2023-02-28T16:09:12;4.57;;;4.27;;
14516;SDS011;7344;50.864;4.362;2023-02-28T16:11:46;4.40;;;4.00;;
14516;SDS011;7344;50.864;4.362;2023-02-28T16:14:21;4.40;;;4.00;;
14516;SDS011;7344;50.864;4.362;2023-02-28T16:16:49;3.87;;;3.50;;
14516;SDS011;7344;50.864;4.362;2023-02-28T16:19:18;6.33;;;5.10;;
14516;SDS011;7344;50.864;4.362;2023-02-28T16:21:44;5.57;;;4.43;;
14516;SDS011;7344;50.864;4.362;2023-02-28T16:24:13;6.47;;;4.47;;
14516;SDS011;7344;50.864;4.362;2023-02-28T16:26:42;8.60;;;4.80;;
14516;SDS011;7344;50.864;4.362;2023-02-28T16:29:12;5.43;;;4.40;;
14516;SDS011;7344;50.864;4.362;2023-02-28T16:31:49;7.07;;;4.73;;
14516;SDS011;7344;50.864;4.362;2023-02-28T16:34:15;5.43;;;4.77;;
14516;SDS011;7344;50.864;4.362;2023-02-28T16:36:41;4.30;;;3.90;;
14516;SDS011;7344;50.864;4.362;2023-02-28T16:39:06;6.00;;;4.13;;
14516;SDS011;7344;50.864;4.362;2023-02-28T16:41:32;5.30;;;4.30;;
14516;SDS011;7344;50.864;4.362;2023-02-28T16:43:59;7.30;;;4.80;;
14516;SDS011;7344;50.864;4.362;2023-02-28T16:46:33;4.20;;;3.80;;
14516;SDS011;7344;50.864;4.362;2023-02-28T16:48:59;6.40;;;4.73;;
14516;SDS011;7344;50.864;4.362;2023-02-28T16:51:25;6.70;;;4.37;;
14516;SDS011;7344;50.864;4.362;2023-02-28T16:53:51;4.80;;;4.27;;
14516;SDS011;7344;50.864;4.362;2023-02-28T16:56:18;5.23;;;4.73;;
14516;SDS011;7344;50.864;4.362;2023-02-28T16:58:46;8.87;;;4.87;;
14516;SDS011;7344;50.864;4.362;2023-02-28T17:01:12;5.03;;;4.37;;
14516;SDS011;7344;50.864;4.362;2023-02-28T17:03:38;5.73;;;4.43;;
14516;SDS011;7344;50.864;4.362;2023-02-28T17:06:05;8.87;;;5.00;;
14516;SDS011;7344;50.864;4.362;2023-02-28T17:08:38;5.43;;;4.27;;
14516;SDS011;7344;50.864;4.362;2023-02-28T17:11:04;7.07;;;4.60;;
14516;SDS011;7344;50.864;4.362;2023-02-28T17:13:29;3.40;;;3.07;;
14516;SDS011;7344;50.864;4.362;2023-02-28T17:15:55;5.90;;;5.10;;
14516;SDS011;7344;50.864;4.362;2023-02-28T17:18:21;4.50;;;4.10;;
14516;SDS011;7344;50.864;4.362;2023-02-28T17:20:47;4.83;;;4.00;;
14516;SDS011;7344;50.864;4.362;2023-02-28T17:23:12;4.73;;;3.60;;
14516;SDS011;7344;50.864;4.362;2023-02-28T17:25:38;4.37;;;4.00;;
14516;SDS011;7344;50.864;4.362;2023-02-28T17:28:04;4.83;;;4.33;;
14516;SDS011;7344;50.864;4.362;2023-02-28T17:30:31;5.30;;;4.30;;
14516;SDS011;7344;50.864;4.362;2023-02-28T17:32:58;6.43;;;4.67;;
14516;SDS011;7344;50.864;4.362;2023-02-28T17:35:24;6.10;;;5.07;;
14516;SDS011;7344;50.864;4.362;2023-02-28T17:37:51;5.40;;;4.83;;
14516;SDS011;7344;50.864;4.362;2023-02-28T17:40:18;6.90;;;4.67;;
14516;SDS011;7344;50.864;4.362;2023-02-28T17:42:46;4.83;;;4.33;;